Time;durP1;ratioP1;P1;durP2;ratioP2;P2;SDS_P1;SDS_P2;PMS_P1;PMS_P2;Temp;Humidity;BMP_temperature;BMP_pressure;BME280_temperature;BME280_humidity;BME280_pressure;Samples;Min_cycle;Max_cycle;Signal;HPM_P1;HPM_P2
2021/09/01 00:00:32;;;;;;;15.73;9.53;;;16.90;98.30;;;;;;4079297;29;20645;-83
2021/09/01 00:02:35;;;;;;;15.27;9.10;;;16.90;98.30;;;;;;4080523;29;20491;-83
2021/09/01 00:04:38;;;;;;;15.30;8.80;;;17.00;98.30;;;;;;4081085;29;20564;-83
2021/09/01 00:06:41;;;;;;;17.20;9.80;;;17.00;98.30;;;;;;4081712;29;20520;-83
2021/09/01 00:08:51;;;;;;;17.40;10.00;;;17.00;98.30;;;;;;4073884;29;20490;-83
2021/09/01 00:10:54;;;;;;;19.00;10.30;;;16.90;98.30;;;;;;4076678;29;20462;-84
2021/09/01 00:12:57;;;;;;;21.07;10.83;;;16.90;98.30;;;;;;4075404;29;20510;-83
2021/09/01 00:15:00;;;;;;;19.17;11.80;;;17.00;98.30;;;;;;4068186;29;20974;-83
2021/09/01 00:17:04;;;;;;;15.03;9.27;;;17.00;98.30;;;;;;4067465;29;20546;-83
2021/09/01 00:19:09;;;;;;;18.63;9.80;;;17.10;98.30;;;;;;4068358;29;20544;-84
2021/09/01 00:21:12;;;;;;;21.17;11.33;;;17.00;98.30;;;;;;4068566;29;20541;-83
2021/09/01 00:23:15;;;;;;;17.60;10.17;;;17.10;98.30;;;;;;4075785;29;20815;-83
2021/09/01 00:25:20;;;;;;;19.77;10.10;;;17.10;98.30;;;;;;4081837;29;20478;-84
2021/09/01 00:27:23;;;;;;;20.10;11.07;;;17.00;98.30;;;;;;4076707;29;20921;-82
2021/09/01 00:29:25;;;;;;;18.40;10.50;;;17.00;98.30;;;;;;4077991;29;20474;-83
2021/09/01 00:31:28;;;;;;;23.80;10.50;;;16.90;98.30;;;;;;4080992;29;20553;-83
2021/09/01 00:33:32;;;;;;;15.40;9.90;;;16.90;98.30;;;;;;4074738;29;20474;-83
2021/09/01 00:35:34;;;;;;;17.60;10.63;;;17.10;98.30;;;;;;4080910;29;20473;-83
2021/09/01 00:37:38;;;;;;;19.00;10.07;;;17.10;98.30;;;;;;4076542;29;20504;-83
2021/09/01 00:39:40;;;;;;;23.43;11.70;;;17.00;98.30;;;;;;4079970;29;20849;-83
2021/09/01 00:41:45;;;;;;;16.57;9.80;;;17.10;98.30;;;;;;4085064;29;20494;-83
2021/09/01 00:43:49;;;;;;;17.53;10.43;;;17.00;98.30;;;;;;4084009;29;21021;-83
2021/09/01 00:45:52;;;;;;;16.90;10.43;;;17.00;98.30;;;;;;4082886;29;20504;-84
2021/09/01 00:47:56;;;;;;;15.27;10.47;;;16.90;98.30;;;;;;4082255;29;20568;-84
2021/09/01 00:49:59;;;;;;;19.40;10.83;;;17.00;98.30;;;;;;4080106;29;20477;-84
2021/09/01 00:52:03;;;;;;;15.83;9.80;;;17.00;98.30;;;;;;4078579;29;20482;-83
2021/09/01 00:54:06;;;;;;;23.80;10.17;;;17.00;98.30;;;;;;4080155;29;20477;-83
2021/09/01 00:56:09;;;;;;;15.80;9.90;;;17.00;98.30;;;;;;4078450;29;20509;-83
2021/09/01 00:58:16;;;;;;;15.60;10.03;;;17.00;98.30;;;;;;4074699;29;20486;-83
2021/09/01 01:00:31;;;;;;;13.33;9.90;;;17.00;98.30;;;;;;4083539;29;20471;-83
2021/09/01 01:02:35;;;;;;;20.33;10.80;;;17.00;98.30;;;;;;4081996;29;20488;-84
2021/09/01 01:04:39;;;;;;;16.87;11.30;;;16.90;98.30;;;;;;4082230;29;20525;-84
2021/09/01 01:06:43;;;;;;;20.30;9.50;;;16.90;98.30;;;;;;4082483;29;20499;-83
2021/09/01 01:08:47;;;;;;;15.50;10.00;;;16.90;98.30;;;;;;4082588;29;20501;-83
2021/09/01 01:10:50;;;;;;;15.57;10.20;;;16.80;98.30;;;;;;4082978;29;20471;-83
2021/09/01 01:12:53;;;;;;;17.47;10.40;;;16.80;98.30;;;;;;4080771;29;20481;-83
2021/09/01 01:14:57;;;;;;;16.03;9.47;;;16.80;98.30;;;;;;4078435;29;20861;-83
2021/09/01 01:17:00;;;;;;;15.43;9.73;;;16.80;98.30;;;;;;4074099;29;20588;-83
2021/09/01 01:19:03;;;;;;;19.00;9.60;;;16.70;98.30;;;;;;4079467;29;20486;-83
2021/09/01 01:21:06;;;;;;;17.90;9.70;;;16.70;98.30;;;;;;4081645;29;20491;-83
2021/09/01 01:23:10;;;;;;;17.03;10.30;;;16.70;98.30;;;;;;4074675;29;20478;-83
2021/09/01 01:25:37;;;;;;;18.57;9.80;;;16.70;98.30;;;;;;4082979;29;20879;-83
2021/09/01 01:27:44;;;;;;;18.03;10.70;;;16.80;98.30;;;;;;4085168;29;20512;-83
2021/09/01 01:29:47;;;;;;;17.50;8.60;;;16.80;98.30;;;;;;4076359;29;20885;-83
2021/09/01 01:31:50;;;;;;;19.63;9.93;;;16.80;98.30;;;;;;4081514;29;20465;-83
2021/09/01 01:33:53;;;;;;;14.00;9.33;;;16.70;98.30;;;;;;4077792;29;20833;-83
2021/09/01 01:35:56;;;;;;;19.17;9.43;;;16.80;98.30;;;;;;4078234;29;20477;-84
2021/09/01 01:38:01;;;;;;;16.40;9.50;;;16.80;98.30;;;;;;4075916;29;20844;-84
2021/09/01 01:40:05;;;;;;;18.00;10.00;;;16.80;98.30;;;;;;4070983;29;20473;-84
2021/09/01 01:42:08;;;;;;;19.37;9.63;;;16.80;98.30;;;;;;4083658;29;20578;-84
2021/09/01 01:44:14;;;;;;;21.23;10.00;;;16.80;98.30;;;;;;4076158;29;20480;-83
2021/09/01 01:46:17;;;;;;;17.17;10.80;;;16.80;98.30;;;;;;4080993;29;20498;-83
2021/09/01 01:48:20;;;;;;;20.90;9.67;;;16.80;98.30;;;;;;4078442;29;20935;-83
2021/09/01 01:50:23;;;;;;;16.80;9.77;;;16.80;98.30;;;;;;4068767;29;20837;-83
2021/09/01 01:52:26;;;;;;;15.87;10.30;;;16.80;98.30;;;;;;4080310;29;20470;-83
2021/09/01 01:54:29;;;;;;;14.70;9.60;;;16.80;98.30;;;;;;4075255;29;20577;-83
2021/09/01 01:56:32;;;;;;;15.50;9.17;;;16.90;98.30;;;;;;4075064;29;20502;-83
2021/09/01 01:58:35;;;;;;;18.80;9.63;;;16.90;98.30;;;;;;4080764;29;20970;-83
2021/09/01 02:00:39;;;;;;;17.90;10.13;;;16.90;98.30;;;;;;4078154;29;20474;-83
2021/09/01 02:02:42;;;;;;;19.33;9.10;;;16.90;98.30;;;;;;4069461;29;20475;-83
2021/09/01 02:04:46;;;;;;;15.30;9.10;;;16.90;98.30;;;;;;4077052;29;20478;-83
2021/09/01 02:06:48;;;;;;;17.40;8.57;;;16.90;98.30;;;;;;4084751;29;20494;-83
2021/09/01 02:08:51;;;;;;;17.07;10.50;;;16.90;98.30;;;;;;4076078;29;20463;-83
2021/09/01 02:10:54;;;;;;;13.50;9.00;;;16.90;98.30;;;;;;4075430;29;20825;-83
2021/09/01 02:12:57;;;;;;;19.00;10.60;;;16.80;98.30;;;;;;4069373;29;20489;-83
2021/09/01 02:15:01;;;;;;;21.33;9.23;;;16.80;98.30;;;;;;4077809;29;20536;-83
2021/09/01 02:17:06;;;;;;;17.87;9.70;;;16.80;98.30;;;;;;4083005;29;20494;-83
2021/09/01 02:19:11;;;;;;;17.17;10.10;;;16.70;98.30;;;;;;4081562;29;20486;-83
2021/09/01 02:21:14;;;;;;;22.03;10.93;;;16.70;98.30;;;;;;4077070;29;20855;-83
2021/09/01 02:23:17;;;;;;;14.50;9.73;;;16.70;98.30;;;;;;4080916;29;20978;-83
2021/09/01 02:25:20;;;;;;;17.67;9.43;;;16.70;98.30;;;;;;4077260;29;20470;-83
2021/09/01 02:27:23;;;;;;;16.40;10.00;;;16.70;98.30;;;;;;4076735;29;20490;-83
2021/09/01 02:29:26;;;;;;;15.90;9.43;;;16.70;98.30;;;;;;4073931;29;20478;-84
2021/09/01 02:31:29;;;;;;;15.37;10.87;;;16.70;98.30;;;;;;4078732;29;20478;-84
2021/09/01 02:33:33;;;;;;;17.23;10.63;;;16.70;98.30;;;;;;4078203;29;20505;-84
2021/09/01 02:35:36;;;;;;;16.10;9.20;;;16.70;98.30;;;;;;4082448;29;20482;-83
2021/09/01 02:37:39;;;;;;;12.90;8.57;;;16.70;98.30;;;;;;4077483;29;20490;-83
2021/09/01 02:39:42;;;;;;;16.70;9.33;;;16.70;98.30;;;;;;4077314;29;20489;-83
2021/09/01 02:41:45;;;;;;;13.27;8.90;;;16.60;98.30;;;;;;4076351;29;20509;-83
2021/09/01 02:43:48;;;;;;;17.07;9.60;;;16.60;98.30;;;;;;4082257;29;20470;-83
2021/09/01 02:45:51;;;;;;;16.50;9.67;;;16.60;98.30;;;;;;4074081;29;20466;-84
2021/09/01 02:47:54;;;;;;;16.10;9.80;;;16.60;98.30;;;;;;4081185;29;20549;-83
2021/09/01 02:49:58;;;;;;;19.00;9.60;;;16.50;98.30;;;;;;4069829;29;20462;-84
2021/09/01 02:52:01;;;;;;;15.70;8.83;;;16.50;98.30;;;;;;4078560;29;20507;-83
2021/09/01 02:54:04;;;;;;;17.70;9.40;;;16.60;98.30;;;;;;4077908;29;20473;-83
2021/09/01 02:56:07;;;;;;;19.40;10.07;;;16.60;98.30;;;;;;4071304;29;20474;-83
2021/09/01 02:58:10;;;;;;;15.40;10.50;;;16.60;98.30;;;;;;4080348;29;20466;-83
2021/09/01 03:00:14;;;;;;;16.83;9.90;;;16.60;98.30;;;;;;4078137;29;20473;-83
2021/09/01 03:02:17;;;;;;;17.13;10.77;;;16.60;98.30;;;;;;4078435;29;20501;-83
2021/09/01 03:04:20;;;;;;;23.20;9.10;;;16.60;98.30;;;;;;4082898;29;21069;-83
2021/09/01 03:06:24;;;;;;;14.03;8.83;;;16.50;98.30;;;;;;4076706;29;20502;-83
2021/09/01 03:08:27;;;;;;;17.37;10.40;;;16.60;98.30;;;;;;4078608;29;20463;-83
2021/09/01 03:10:30;;;;;;;17.00;10.47;;;16.70;98.30;;;;;;4077766;29;20487;-84
2021/09/01 03:12:33;;;;;;;14.73;9.27;;;16.70;98.30;;;;;;4079288;29;20810;-83
2021/09/01 03:14:36;;;;;;;18.60;9.40;;;16.80;98.30;;;;;;4073005;29;20469;-83
2021/09/01 03:16:39;;;;;;;14.87;10.17;;;16.80;98.30;;;;;;4075796;29;20487;-84
2021/09/01 03:18:42;;;;;;;18.33;10.10;;;16.70;98.30;;;;;;4076019;29;23059;-83
2021/09/01 03:20:45;;;;;;;16.70;10.30;;;16.60;98.30;;;;;;4076728;29;20553;-83
2021/09/01 03:22:49;;;;;;;19.13;11.30;;;16.60;98.30;;;;;;4071817;29;20491;-83
2021/09/01 03:24:52;;;;;;;16.43;10.00;;;16.60;98.30;;;;;;4079370;29;20466;-83
2021/09/01 03:26:55;;;;;;;15.60;9.90;;;16.60;98.30;;;;;;4069505;29;20859;-83
2021/09/01 03:28:58;;;;;;;16.67;10.87;;;16.60;98.30;;;;;;4081397;29;20482;-83
2021/09/01 03:31:01;;;;;;;15.60;9.97;;;16.60;98.30;;;;;;4076618;29;20485;-83
2021/09/01 03:33:04;;;;;;;17.10;10.70;;;16.50;98.30;;;;;;4080480;29;20585;-83
2021/09/01 03:35:08;;;;;;;19.73;10.67;;;16.60;98.30;;;;;;4077048;29;20470;-82
2021/09/01 03:37:11;;;;;;;18.13;10.40;;;16.50;98.30;;;;;;4074692;29;21053;-83
2021/09/01 03:39:15;;;;;;;18.90;9.97;;;16.50;98.30;;;;;;4076287;29;20482;-83
2021/09/01 03:41:18;;;;;;;19.67;11.40;;;16.50;98.30;;;;;;4080771;29;20958;-83
2021/09/01 03:43:21;;;;;;;16.77;10.73;;;16.60;98.30;;;;;;4074014;29;20586;-83
2021/09/01 03:45:24;;;;;;;16.30;11.50;;;16.60;98.30;;;;;;4078579;29;20494;-83
2021/09/01 03:47:27;;;;;;;18.53;10.87;;;16.70;98.30;;;;;;4073966;29;20487;-83
2021/09/01 03:49:29;;;;;;;15.60;10.23;;;16.70;98.30;;;;;;4068942;29;20491;-83
2021/09/01 03:51:33;;;;;;;16.60;10.87;;;16.60;98.30;;;;;;4082483;29;20860;-83
2021/09/01 03:53:36;;;;;;;18.00;11.40;;;16.60;98.30;;;;;;4078124;29;20470;-83
2021/09/01 03:55:40;;;;;;;22.00;11.17;;;16.60;98.30;;;;;;4071512;29;20976;-84
2021/09/01 03:57:43;;;;;;;25.20;13.80;;;16.60;98.30;;;;;;4076317;29;20504;-83
2021/09/01 03:59:46;;;;;;;24.97;14.27;;;16.60;98.30;;;;;;4076280;29;20486;-83
2021/09/01 04:01:49;;;;;;;21.10;12.63;;;16.70;98.30;;;;;;4081523;29;20470;-83
2021/09/01 04:03:52;;;;;;;23.97;11.90;;;16.70;98.30;;;;;;4078586;29;20549;-84
2021/09/01 04:05:55;;;;;;;19.20;11.70;;;16.60;98.30;;;;;;4080106;29;20475;-83
2021/09/01 04:07:58;;;;;;;20.07;10.73;;;16.70;98.30;;;;;;4073034;29;20484;-83
2021/09/01 04:10:01;;;;;;;14.30;10.83;;;16.60;98.30;;;;;;4078178;29;20482;-83
2021/09/01 04:12:06;;;;;;;18.23;12.07;;;16.60;98.30;;;;;;4082137;29;20708;-83
2021/09/01 04:14:09;;;;;;;17.20;11.20;;;16.70;98.30;;;;;;4072777;29;20467;-83
2021/09/01 04:16:12;;;;;;;20.33;11.30;;;16.70;98.30;;;;;;4080076;29;20520;-83
2021/09/01 04:18:15;;;;;;;21.87;11.17;;;16.60;98.30;;;;;;4081032;29;20502;-82
2021/09/01 04:20:18;;;;;;;26.03;11.30;;;16.70;98.30;;;;;;4076354;29;20487;-83
2021/09/01 04:22:21;;;;;;;19.57;11.13;;;16.70;98.30;;;;;;4085135;29;20489;-83
2021/09/01 04:24:23;;;;;;;17.80;10.83;;;16.60;98.30;;;;;;4079321;29;20486;-83
2021/09/01 04:26:26;;;;;;;14.77;11.00;;;16.60;98.30;;;;;;4078145;29;20826;-83
2021/09/01 04:28:31;;;;;;;16.70;11.20;;;16.60;98.30;;;;;;4070446;29;20879;-84
2021/09/01 04:30:34;;;;;;;28.03;12.47;;;16.70;98.30;;;;;;4077096;29;20472;-83
2021/09/01 04:32:37;;;;;;;16.00;10.73;;;16.70;98.30;;;;;;4071611;29;20479;-83
2021/09/01 04:34:40;;;;;;;18.97;11.83;;;16.60;98.30;;;;;;4078097;29;20478;-84
2021/09/01 04:36:43;;;;;;;22.73;13.83;;;16.70;98.30;;;;;;4081178;29;20498;-86
2021/09/01 04:38:46;;;;;;;20.83;13.40;;;16.70;98.30;;;;;;4079441;29;20904;-86
2021/09/01 04:40:49;;;;;;;21.77;12.93;;;16.80;98.30;;;;;;4078065;29;21029;-86
2021/09/01 04:42:54;;;;;;;23.00;13.50;;;16.80;98.30;;;;;;4083614;29;20496;-88
2021/09/01 04:45:06;;;;;;;21.67;12.70;;;16.80;98.30;;;;;;4083398;29;20469;-85
2021/09/01 04:47:09;;;;;;;19.80;13.07;;;16.70;98.30;;;;;;4069429;29;20926;-86
2021/09/01 04:49:12;;;;;;;18.27;12.33;;;16.70;98.30;;;;;;4080531;29;20465;-85
2021/09/01 04:51:21;;;;;;;25.00;12.30;;;16.70;98.30;;;;;;4073680;29;20506;-86
2021/09/01 04:53:24;;;;;;;18.80;12.27;;;16.60;98.30;;;;;;4082251;29;20461;-86
2021/09/01 04:55:27;;;;;;;25.63;11.97;;;16.70;98.30;;;;;;4079815;29;20532;-86
2021/09/01 04:57:30;;;;;;;20.73;11.50;;;16.60;98.30;;;;;;4069124;29;20487;-85
2021/09/01 04:59:33;;;;;;;21.70;11.57;;;16.60;98.30;;;;;;4069048;29;20474;-85
2021/09/01 05:01:38;;;;;;;20.00;11.70;;;16.70;98.30;;;;;;4070464;29;20931;-86
2021/09/01 05:03:41;;;;;;;22.07;12.20;;;16.70;98.30;;;;;;4068332;29;20498;-86
2021/09/01 05:05:44;;;;;;;22.13;12.63;;;16.70;98.30;;;;;;4067444;29;20554;-85
2021/09/01 05:07:47;;;;;;;27.30;13.03;;;16.60;98.30;;;;;;4067126;29;20518;-85
2021/09/01 05:09:50;;;;;;;19.10;11.17;;;16.60;98.30;;;;;;4067324;29;20830;-86
2021/09/01 05:11:54;;;;;;;17.43;10.57;;;16.60;98.30;;;;;;4067429;29;21101;-86
2021/09/01 05:13:57;;;;;;;15.33;11.30;;;16.50;98.30;;;;;;4075243;29;20477;-85
2021/09/01 05:16:00;;;;;;;19.07;10.30;;;16.60;98.30;;;;;;4079464;29;20536;-85
2021/09/01 05:18:04;;;;;;;24.77;11.77;;;16.60;98.30;;;;;;4076216;29;20722;-85
2021/09/01 05:20:09;;;;;;;22.33;12.10;;;16.60;98.30;;;;;;4070147;29;20494;-85
2021/09/01 05:22:16;;;;;;;17.00;10.87;;;16.50;98.30;;;;;;4082344;29;21062;-85
2021/09/01 05:24:29;;;;;;;20.17;11.70;;;16.50;98.30;;;;;;4076530;29;20586;-85
2021/09/01 05:26:33;;;;;;;21.57;10.73;;;16.50;98.30;;;;;;4072910;29;20581;-86
2021/09/01 05:28:38;;;;;;;21.20;12.53;;;16.40;98.30;;;;;;4070950;29;20554;-85
2021/09/01 05:30:41;;;;;;;22.20;11.17;;;16.40;98.30;;;;;;4068412;29;20498;-85
2021/09/01 05:32:48;;;;;;;19.00;11.00;;;16.50;98.30;;;;;;4076670;29;21109;-85
2021/09/01 05:34:54;;;;;;;16.80;11.40;;;16.50;98.30;;;;;;4068335;29;20827;-85
2021/09/01 05:36:58;;;;;;;18.53;11.30;;;16.60;98.30;;;;;;4078816;29;20516;-85
2021/09/01 05:39:02;;;;;;;17.63;10.67;;;16.60;98.30;;;;;;4069751;29;20482;-85
2021/09/01 05:41:05;;;;;;;17.77;10.20;;;16.60;98.30;;;;;;4077319;29;21049;-86
2021/09/01 05:43:08;;;;;;;20.30;10.80;;;16.60;98.30;;;;;;4071627;29;20545;-86
2021/09/01 05:45:11;;;;;;;17.93;10.60;;;16.60;98.30;;;;;;4068156;29;21012;-85
2021/09/01 05:47:16;;;;;;;13.50;9.27;;;16.60;98.30;;;;;;4068530;29;20495;-86
2021/09/01 05:49:22;;;;;;;17.50;10.57;;;16.50;98.30;;;;;;4068738;29;20812;-86
2021/09/01 05:51:28;;;;;;;14.67;9.80;;;16.60;98.30;;;;;;4068300;29;20498;-85
2021/09/01 05:53:32;;;;;;;16.40;10.90;;;16.50;98.30;;;;;;4068082;29;20550;-86
2021/09/01 05:55:41;;;;;;;16.03;11.17;;;16.60;98.30;;;;;;4072549;29;20914;-86
2021/09/01 05:57:46;;;;;;;12.80;10.27;;;16.60;98.30;;;;;;4073287;29;20895;-85
2021/09/01 05:59:56;;;;;;;15.83;9.43;;;16.70;98.30;;;;;;4075468;29;20478;-86
2021/09/01 06:02:06;;;;;;;13.73;10.50;;;16.70;98.30;;;;;;4068633;29;20497;-86
2021/09/01 06:04:10;;;;;;;16.90;11.83;;;16.70;98.30;;;;;;4068329;29;20489;-85
2021/09/01 06:06:17;;;;;;;15.40;11.20;;;16.80;98.30;;;;;;4068456;29;21042;-85
2021/09/01 06:08:23;;;;;;;17.93;11.17;;;16.80;98.30;;;;;;4069690;29;20570;-85
2021/09/01 06:10:29;;;;;;;17.20;11.10;;;16.90;98.30;;;;;;4076179;29;20547;-86
2021/09/01 06:12:38;;;;;;;14.90;10.50;;;16.80;98.30;;;;;;4079955;29;20498;-85
2021/09/01 06:14:41;;;;;;;15.57;11.37;;;16.80;98.30;;;;;;4074258;29;20568;-85
2021/09/01 06:16:44;;;;;;;21.43;12.63;;;16.80;98.30;;;;;;4078661;29;20548;-86
2021/09/01 06:18:47;;;;;;;18.10;10.47;;;16.80;98.30;;;;;;4084030;29;21036;-85
2021/09/01 06:20:54;;;;;;;16.53;11.63;;;16.90;98.30;;;;;;4072867;29;20463;-86
2021/09/01 06:22:57;;;;;;;16.23;11.17;;;17.00;98.30;;;;;;4068362;29;20832;-85
2021/09/01 06:25:03;;;;;;;15.17;10.40;;;17.00;98.30;;;;;;4067986;29;20542;-86
2021/09/01 06:27:08;;;;;;;14.30;10.53;;;17.00;98.30;;;;;;4068691;29;20491;-85
2021/09/01 06:29:11;;;;;;;13.57;10.37;;;17.00;98.30;;;;;;4068508;29;20884;-85
2021/09/01 06:31:17;;;;;;;15.70;11.63;;;16.90;98.30;;;;;;4068875;29;20558;-85
2021/09/01 06:33:20;;;;;;;16.80;10.70;;;17.00;98.30;;;;;;4068077;29;20506;-85
2021/09/01 06:35:23;;;;;;;18.27;11.83;;;17.00;98.30;;;;;;4067928;29;20890;-86
2021/09/01 06:37:29;;;;;;;16.10;12.50;;;17.10;98.30;;;;;;4067922;29;20491;-85
2021/09/01 06:39:32;;;;;;;15.80;10.80;;;17.10;98.30;;;;;;4072378;29;20527;-86
2021/09/01 06:41:36;;;;;;;16.10;10.80;;;17.10;98.30;;;;;;4087497;29;20538;-87
2021/09/01 06:43:39;;;;;;;16.27;11.07;;;17.10;98.30;;;;;;4087727;29;20463;-87
2021/09/01 06:45:44;;;;;;;16.63;11.40;;;17.20;98.30;;;;;;4087699;29;20531;-86
2021/09/01 06:47:49;;;;;;;15.20;11.10;;;17.20;98.30;;;;;;4088060;29;20482;-86
2021/09/01 06:49:52;;;;;;;18.73;11.17;;;17.30;98.30;;;;;;4088602;29;20486;-86
2021/09/01 06:51:55;;;;;;;13.33;10.97;;;17.40;98.30;;;;;;4095861;28;20472;-86
2021/09/01 06:53:58;;;;;;;20.10;15.10;;;17.40;98.30;;;;;;4080220;29;20470;-86
2021/09/01 06:56:01;;;;;;;17.27;13.83;;;17.50;98.30;;;;;;4073686;29;20491;-85
2021/09/01 06:58:15;;;;;;;26.53;19.33;;;17.60;98.30;;;;;;4076200;29;21035;-86
2021/09/01 07:00:20;;;;;;;15.37;12.57;;;17.70;98.30;;;;;;4067839;29;20558;-85
2021/09/01 07:02:23;;;;;;;23.50;14.00;;;17.70;98.30;;;;;;4068071;29;20478;-85
2021/09/01 07:04:27;;;;;;;19.40;12.70;;;17.80;98.30;;;;;;4067444;29;20494;-86
2021/09/01 07:06:30;;;;;;;15.20;12.20;;;17.90;98.30;;;;;;4067342;29;20503;-85
2021/09/01 07:08:33;;;;;;;26.90;19.73;;;17.90;98.30;;;;;;4067335;29;20490;-85
2021/09/01 07:10:36;;;;;;;57.93;33.93;;;17.90;98.30;;;;;;4067370;29;20557;-85
2021/09/01 07:12:39;;;;;;;20.33;14.83;;;18.00;98.30;;;;;;4067400;29;20554;-85
2021/09/01 07:14:43;;;;;;;20.63;16.17;;;18.00;98.30;;;;;;4067059;29;20475;-85
2021/09/01 07:16:46;;;;;;;28.90;17.10;;;18.00;98.30;;;;;;4067595;29;20578;-86
2021/09/01 07:18:49;;;;;;;26.23;18.37;;;18.10;98.30;;;;;;4067324;29;20478;-85
2021/09/01 07:20:52;;;;;;;23.63;14.77;;;18.20;98.30;;;;;;4066946;29;20986;-85
2021/09/01 07:22:58;;;;;;;17.23;13.20;;;18.30;98.30;;;;;;4066828;29;20494;-86
2021/09/01 07:25:01;;;;;;;20.77;15.10;;;18.30;98.30;;;;;;4066381;29;20499;-85
2021/09/01 07:27:05;;;;;;;23.50;17.47;;;18.30;98.30;;;;;;4067057;29;20495;-85
2021/09/01 07:29:11;;;;;;;18.60;14.47;;;18.50;98.30;;;;;;4075716;29;20829;-86
2021/09/01 07:31:15;;;;;;;20.93;15.67;;;18.50;98.30;;;;;;4068030;29;20550;-85
2021/09/01 07:33:19;;;;;;;16.00;12.33;;;18.40;98.30;;;;;;4066957;29;20947;-85
2021/09/01 07:35:22;;;;;;;15.90;12.50;;;18.50;98.30;;;;;;4066921;29;20831;-86
2021/09/01 07:37:25;;;;;;;18.33;13.03;;;18.50;98.30;;;;;;4067097;29;20521;-86
2021/09/01 07:39:28;;;;;;;24.63;17.33;;;18.50;98.30;;;;;;4069034;29;20478;-85
2021/09/01 07:41:33;;;;;;;29.13;17.03;;;18.50;98.30;;;;;;4074846;29;21028;-85
2021/09/01 07:43:36;;;;;;;41.03;30.33;;;18.60;98.30;;;;;;4079866;29;20481;-86
2021/09/01 07:45:40;;;;;;;23.80;15.90;;;18.60;98.30;;;;;;4066652;29;20509;-85
2021/09/01 07:47:50;;;;;;;15.83;11.97;;;18.70;98.30;;;;;;4067671;29;20495;-85
2021/09/01 07:49:53;;;;;;;20.30;10.93;;;18.80;98.30;;;;;;4070165;29;20498;-86
2021/09/01 07:51:56;;;;;;;15.30;10.77;;;18.80;98.30;;;;;;4070036;29;20838;-86
2021/09/01 07:54:00;;;;;;;18.80;11.30;;;18.70;98.30;;;;;;4070012;29;20473;-85
2021/09/01 07:56:04;;;;;;;15.13;10.07;;;18.70;98.30;;;;;;4069965;29;20474;-85
2021/09/01 07:58:07;;;;;;;14.30;10.53;;;18.80;98.30;;;;;;4069648;29;20498;-85
2021/09/01 08:00:12;;;;;;;18.17;10.03;;;19.00;98.30;;;;;;4069978;29;20479;-85
2021/09/01 08:02:15;;;;;;;13.07;9.87;;;19.10;98.30;;;;;;4070346;29;20859;-85
2021/09/01 08:04:23;;;;;;;17.60;10.53;;;19.30;98.30;;;;;;4069887;29;20487;-85
2021/09/01 08:06:26;;;;;;;16.83;11.17;;;19.40;98.30;;;;;;4069405;29;20505;-86
2021/09/01 08:08:30;;;;;;;11.70;9.70;;;19.60;98.30;;;;;;4071277;29;20466;-85
2021/09/01 08:10:33;;;;;;;12.00;9.23;;;19.60;98.30;;;;;;4075089;29;20517;-85
2021/09/01 08:12:40;;;;;;;14.63;10.50;;;19.70;98.30;;;;;;4085770;29;20478;-85
2021/09/01 08:14:44;;;;;;;13.90;9.90;;;19.70;98.30;;;;;;4080051;29;20462;-86
2021/09/01 08:16:47;;;;;;;13.53;10.23;;;19.80;98.30;;;;;;4069951;29;20581;-86
2021/09/01 08:18:50;;;;;;;13.30;10.13;;;19.90;98.30;;;;;;4069815;29;20491;-86
2021/09/01 08:20:55;;;;;;;21.70;10.43;;;19.80;98.30;;;;;;4069682;29;21022;-85
2021/09/01 08:23:00;;;;;;;15.17;10.43;;;20.00;98.30;;;;;;4069767;29;20913;-85
2021/09/01 08:25:03;;;;;;;15.10;12.20;;;20.00;98.30;;;;;;4069603;29;21086;-86
2021/09/01 08:27:07;;;;;;;11.70;10.40;;;19.80;98.30;;;;;;4069434;29;20495;-85
2021/09/01 08:29:11;;;;;;;16.73;11.13;;;19.80;98.30;;;;;;4069333;29;20467;-86
2021/09/01 08:31:17;;;;;;;11.90;10.00;;;20.00;98.30;;;;;;4069353;29;20498;-86
2021/09/01 08:33:21;;;;;;;10.70;9.67;;;20.10;98.30;;;;;;4069386;29;20557;-85
2021/09/01 08:35:24;;;;;;;13.07;9.67;;;20.30;98.30;;;;;;4075417;29;20506;-86
2021/09/01 08:37:29;;;;;;;14.33;10.40;;;20.50;98.30;;;;;;4075281;29;20610;-86
2021/09/01 08:39:34;;;;;;;18.60;10.23;;;20.80;98.30;;;;;;4069515;29;20967;-86
2021/09/01 08:41:38;;;;;;;14.20;9.70;;;20.80;98.30;;;;;;4069639;29;20549;-86
2021/09/01 08:43:41;;;;;;;12.73;9.57;;;20.90;98.30;;;;;;4071828;29;20610;-86
2021/09/01 08:45:45;;;;;;;15.50;9.07;;;20.90;98.30;;;;;;4085166;29;20572;-86
2021/09/01 08:47:49;;;;;;;14.50;9.50;;;21.10;98.30;;;;;;4080575;29;20537;-86
2021/09/01 08:49:53;;;;;;;13.53;10.10;;;21.20;98.30;;;;;;4084231;29;20481;-85
2021/09/01 08:51:56;;;;;;;15.63;9.10;;;21.30;98.30;;;;;;4077107;29;20672;-86
2021/09/01 08:54:01;;;;;;;13.10;9.30;;;21.40;98.30;;;;;;4074145;29;20477;-86
2021/09/01 08:56:04;;;;;;;13.17;9.87;;;21.50;98.30;;;;;;4068971;29;20462;-86
2021/09/01 08:58:07;;;;;;;13.50;9.00;;;21.40;98.30;;;;;;4076303;29;20510;-85
2021/09/01 09:00:11;;;;;;;15.13;9.57;;;21.50;98.30;;;;;;4084786;29;20477;-86
2021/09/01 09:02:15;;;;;;;11.73;8.67;;;21.50;98.30;;;;;;4084864;29;20462;-85
2021/09/01 09:04:20;;;;;;;13.30;9.03;;;21.50;98.30;;;;;;4075450;29;20477;-86
2021/09/01 09:06:23;;;;;;;16.93;9.80;;;21.70;98.30;;;;;;4070006;29;20526;-86
2021/09/01 09:08:31;;;;;;;14.80;9.47;;;21.90;98.30;;;;;;4069047;29;20479;-86
2021/09/01 09:10:38;;;;;;;9.53;8.53;;;22.00;98.30;;;;;;4068995;29;20567;-86
2021/09/01 09:12:41;;;;;;;12.60;9.50;;;22.20;98.30;;;;;;4079471;29;20463;-86
2021/09/01 09:14:49;;;;;;;9.63;8.60;;;22.30;98.30;;;;;;4074044;29;20479;-86
2021/09/01 09:17:12;;;;;;;10.60;7.90;;;22.40;98.30;;;;;;4082185;29;20943;-86
2021/09/01 09:19:17;;;;;;;11.00;8.10;;;22.40;98.30;;;;;;4083815;29;20549;-86
2021/09/01 09:21:22;;;;;;;11.23;8.93;;;22.60;98.30;;;;;;4070570;29;21001;-85
2021/09/01 09:23:30;;;;;;;11.53;8.33;;;22.70;98.30;;;;;;4069076;29;20509;-86
2021/09/01 09:25:36;;;;;;;12.17;8.70;;;22.90;98.30;;;;;;4068877;29;20947;-87
2021/09/01 09:27:41;;;;;;;15.40;9.20;;;23.00;98.30;;;;;;4069298;29;20533;-86
2021/09/01 09:29:44;;;;;;;13.83;8.20;;;23.00;98.30;;;;;;4068919;29;20482;-86
2021/09/01 09:31:59;;;;;;;9.90;8.47;;;23.00;98.30;;;;;;4068653;29;20502;-86
2021/09/01 09:34:08;;;;;;;11.40;7.87;;;23.20;98.30;;;;;;4068862;29;20467;-86
2021/09/01 09:36:22;;;;;;;;;;;;;;;;;;;;;
2021/09/01 09:38:31;;;;;;;12.33;8.57;;;23.70;98.30;;;;;;4070176;29;20485;-87
2021/09/01 09:40:36;;;;;;;10.27;8.00;;;23.80;98.30;;;;;;4081742;29;20521;-86
2021/09/01 09:42:40;;;;;;;13.03;8.40;;;23.90;98.30;;;;;;4068727;29;20468;-85
2021/09/01 09:44:43;;;;;;;12.53;7.67;;;24.00;98.30;;;;;;4068587;29;20460;-87
2021/09/01 09:46:48;;;;;;;11.07;8.20;;;23.70;98.30;;;;;;4083952;29;20528;-86
2021/09/01 09:48:53;;;;;;;10.77;7.47;;;23.90;98.30;;;;;;4084350;29;20466;-86
2021/09/01 09:50:58;;;;;;;11.77;8.20;;;24.10;98.30;;;;;;4068505;29;20515;-86
2021/09/01 09:53:01;;;;;;;10.30;7.80;;;24.20;98.30;;;;;;4068017;29;20893;-87
2021/09/01 09:55:10;;;;;;;8.93;7.87;;;24.20;98.30;;;;;;4068043;29;20554;-86
2021/09/01 09:57:15;;;;;;;9.80;8.17;;;24.40;98.30;;;;;;4068510;29;20494;-87
2021/09/01 09:59:20;;;;;;;9.30;7.77;;;24.60;98.30;;;;;;4068214;29;20510;-86
2021/09/01 10:01:31;;;;;;;12.33;8.03;;;24.70;98.30;;;;;;4068247;29;20471;-86
2021/09/01 10:03:35;;;;;;;11.23;8.40;;;24.80;98.30;;;;;;4068256;29;21013;-86
2021/09/01 10:05:44;;;;;;;11.07;8.37;;;24.70;98.30;;;;;;4068244;29;20463;-86
2021/09/01 10:07:51;;;;;;;9.50;8.13;;;24.60;98.30;;;;;;4068290;29;21063;-86
2021/09/01 10:09:56;;;;;;;10.63;7.93;;;24.80;98.30;;;;;;4073494;29;20978;-86
2021/09/01 10:12:06;;;;;;;13.20;8.30;;;24.90;98.30;;;;;;4073367;29;20474;-86
2021/09/01 10:14:16;;;;;;;10.30;7.40;;;25.00;98.30;;;;;;4071571;29;20480;-86
2021/09/01 10:16:29;;;;;;;8.80;7.80;;;25.00;98.30;;;;;;4083901;29;20522;-87
2021/09/01 10:18:40;;;;;;;9.40;7.77;;;25.00;98.30;;;;;;4083891;29;20481;-85
2021/09/01 10:20:46;;;;;;;9.70;7.73;;;25.00;98.30;;;;;;4067905;29;20507;-86
2021/09/01 10:23:01;;;;;;;9.43;7.47;;;25.10;98.30;;;;;;4080404;29;20517;-87
2021/09/01 10:25:10;;;;;;;8.50;7.10;;;25.30;97.90;;;;;;4068224;29;20482;-86
2021/09/01 10:27:17;;;;;;;11.00;7.97;;;25.20;97.20;;;;;;4071781;29;21010;-87
2021/09/01 10:29:39;;;;;;;12.03;7.80;;;25.20;97.40;;;;;;4073001;29;20570;-86
2021/09/01 10:31:48;;;;;;;9.93;7.97;;;25.30;97.00;;;;;;4067914;29;21051;-86
2021/09/01 10:33:54;;;;;;;41.87;35.77;;;25.50;97.00;;;;;;4067917;29;21261;-87
2021/09/01 10:35:57;;;;;;;39.77;30.73;;;25.50;97.30;;;;;;4067573;29;20522;-87